createdAt,value
2022-12-13T00:01:45.309Z,-4.59
2022-12-13T00:04:11.960Z,-4.77
2022-12-13T00:06:38.482Z,-4.61
2022-12-13T00:09:05.855Z,-4.44
2022-12-13T00:11:32.884Z,-4.72
2022-12-13T00:13:59.342Z,-4.65
2022-12-13T00:16:26.921Z,-4.48
2022-12-13T00:18:58.373Z,-4.69
2022-12-13T00:21:28.327Z,-4.69
2022-12-13T00:23:55.676Z,-4.75
2022-12-13T00:26:25.242Z,-4.68
2022-12-13T00:28:52.934Z,-4.63
2022-12-13T00:34:08.058Z,-4.66
2022-12-13T00:36:35.846Z,-5.03
2022-12-13T00:39:02.415Z,-5.01
2022-12-13T00:41:34.485Z,-5.23
2022-12-13T00:44:02.921Z,-5.04
2022-12-13T00:46:29.992Z,-4.89
2022-12-13T00:48:59.269Z,-4.69
2022-12-13T00:51:28.276Z,-4.63
2022-12-13T00:53:54.947Z,-4.62
2022-12-13T00:56:25.423Z,-4.57
2022-12-13T00:58:53.153Z,-4.79
2022-12-13T01:01:24.589Z,-4.67
2022-12-13T01:03:53.789Z,-4.62
2022-12-13T01:06:23.069Z,-4.66
2022-12-13T01:08:49.993Z,-4.91
2022-12-13T01:11:17.481Z,-4.87
2022-12-13T01:13:44.664Z,-4.80
2022-12-13T01:16:12.468Z,-4.82
2022-12-13T01:18:40.636Z,-4.72
2022-12-13T01:21:07.019Z,-4.75
2022-12-13T01:23:34.265Z,-4.78
2022-12-13T01:26:05.175Z,-5.03
2022-12-13T01:28:32.687Z,-4.88
2022-12-13T01:31:05.118Z,-4.90
2022-12-13T01:33:32.432Z,-4.93
2022-12-13T01:36:03.695Z,-4.91
2022-12-13T01:38:30.175Z,-5.32
2022-12-13T01:41:00.299Z,-5.09
2022-12-13T01:43:49.256Z,-5.13
2022-12-13T01:46:17.751Z,-5.21
2022-12-13T01:49:01.183Z,-5.23
2022-12-13T01:51:47.223Z,-5.21
2022-12-13T01:54:21.131Z,-5.09
2022-12-13T01:57:00.626Z,-5.07
2022-12-13T01:59:28.080Z,-5.07
2022-12-13T02:01:54.563Z,-5.21
2022-12-13T02:04:31.805Z,-5.08
2022-12-13T02:06:58.796Z,-5.00
2022-12-13T02:09:26.183Z,-4.93
2022-12-13T02:11:53.041Z,-4.95
2022-12-13T02:14:19.515Z,-5.14
2022-12-13T02:16:48.920Z,-5.00
2022-12-13T02:19:48.516Z,-5.02
2022-12-13T02:22:26.866Z,-5.11
2022-12-13T02:25:05.783Z,-5.13
2022-12-13T02:27:42.803Z,-5.09
2022-12-13T02:30:30.505Z,-5.10
2022-12-13T02:33:21.455Z,-5.06
2022-12-13T02:36:01.609Z,-5.08
2022-12-13T02:38:44.776Z,-5.06
2022-12-13T02:41:21.765Z,-5.22
2022-12-13T02:44:01.131Z,-5.18
2022-12-13T02:46:32.719Z,-5.35
2022-12-13T02:49:00.622Z,-5.37
2022-12-13T02:51:28.829Z,-5.44
2022-12-13T02:53:55.500Z,-5.36
2022-12-13T02:56:22.018Z,-5.25
2022-12-13T02:58:52.418Z,-5.20
2022-12-13T03:01:28.939Z,-5.36
2022-12-13T03:04:01.991Z,-5.26
2022-12-13T03:07:17.734Z,-5.31
2022-12-13T03:10:01.541Z,-5.46
2022-12-13T03:12:49.686Z,-5.45
2022-12-13T03:15:29.802Z,-5.44
2022-12-13T03:18:17.887Z,-5.33
2022-12-13T03:20:57.827Z,-5.39
2022-12-13T03:23:25.448Z,-5.46
2022-12-13T03:25:59.504Z,-5.43
2022-12-13T03:28:26.029Z,-5.40
2022-12-13T03:30:52.560Z,-5.30
2022-12-13T03:33:19.051Z,-5.57
2022-12-13T03:35:46.129Z,-5.44
2022-12-13T03:38:21.231Z,-5.48
2022-12-13T03:40:52.367Z,-5.46
2022-12-13T03:43:22.392Z,-5.77
2022-12-13T03:45:50.975Z,-5.58
2022-12-13T03:48:22.231Z,-5.56
2022-12-13T03:50:50.829Z,-5.55
2022-12-13T03:53:32.025Z,-5.55
2022-12-13T03:56:01.344Z,-5.58
2022-12-13T03:58:36.398Z,-5.43
2022-12-13T04:01:14.718Z,-5.60
2022-12-13T04:03:42.994Z,-5.82
2022-12-13T04:06:09.917Z,-5.67
2022-12-13T04:08:37.894Z,-5.81
2022-12-13T04:11:25.276Z,-5.60
2022-12-13T04:13:52.499Z,-5.46
2022-12-13T04:16:19.447Z,-5.32
2022-12-13T04:18:46.010Z,-5.37
2022-12-13T04:21:12.438Z,-5.33
2022-12-13T04:23:38.935Z,-5.35
2022-12-13T04:26:05.639Z,-5.45
2022-12-13T04:28:32.190Z,-5.57
2022-12-13T04:30:58.702Z,-5.45
2022-12-13T04:33:25.599Z,-5.47
2022-12-13T04:35:52.231Z,-5.63
2022-12-13T04:38:19.017Z,-5.43
2022-12-13T04:40:45.991Z,-5.37
2022-12-13T04:43:12.443Z,-5.37
2022-12-13T04:45:39.007Z,-5.31
2022-12-13T04:48:05.934Z,-5.36
2022-12-13T04:50:32.798Z,-5.28
2022-12-13T04:52:59.359Z,-5.22
2022-12-13T04:55:25.865Z,-5.27
2022-12-13T04:57:52.379Z,-5.22
2022-12-13T05:00:20.287Z,-5.54
2022-12-13T05:02:46.800Z,-5.60
2022-12-13T05:05:13.668Z,-5.54
2022-12-13T05:07:42.193Z,-5.40
2022-12-13T05:10:10.572Z,-5.29
2022-12-13T05:12:37.067Z,-5.48
2022-12-13T05:15:03.859Z,-5.67
2022-12-13T05:17:30.417Z,-5.49
2022-12-13T05:19:56.897Z,-5.67
2022-12-13T05:22:23.450Z,-5.71
2022-12-13T05:24:50.035Z,-5.92
2022-12-13T05:27:25.780Z,-5.91
2022-12-13T05:30:03.245Z,-5.72
2022-12-13T05:32:44.120Z,-5.77
2022-12-13T05:35:23.496Z,-5.61
2022-12-13T05:37:54.113Z,-5.61
2022-12-13T05:40:23.021Z,-5.50
2022-12-13T05:42:49.981Z,-5.37
2022-12-13T05:45:19.010Z,-5.51
2022-12-13T05:47:46.016Z,-5.50
2022-12-13T05:50:14.154Z,-5.35
2022-12-13T05:52:40.650Z,-5.37
2022-12-13T05:55:07.439Z,-5.40
2022-12-13T05:57:34.273Z,-5.46
2022-12-13T06:00:00.859Z,-5.46
2022-12-13T06:02:27.803Z,-5.44
2022-12-13T06:04:54.422Z,-5.46
2022-12-13T06:07:21.133Z,-5.52
2022-12-13T06:09:47.591Z,-5.74
2022-12-13T06:12:30.940Z,-5.59
2022-12-13T06:15:00.931Z,-5.55
2022-12-13T06:17:37.585Z,-5.44
2022-12-13T06:20:23.639Z,-5.39
2022-12-13T06:22:52.134Z,-5.36
2022-12-13T06:25:30.643Z,-5.31
2022-12-13T06:28:01.795Z,-5.34
2022-12-13T06:30:31.915Z,-5.28
2022-12-13T06:32:58.480Z,-5.16
2022-12-13T06:35:28.914Z,-5.16
2022-12-13T06:38:01.605Z,-4.63
2022-12-13T06:40:31.358Z,-4.73
2022-12-13T06:42:58.129Z,-4.88
2022-12-13T06:45:25.382Z,-4.92
2022-12-13T06:47:52.085Z,-5.05
2022-12-13T06:50:18.622Z,-5.05
2022-12-13T06:52:46.471Z,-5.03
2022-12-13T06:55:12.981Z,-5.16
2022-12-13T06:57:40.885Z,-5.14
2022-12-13T07:00:09.514Z,-5.19
2022-12-13T07:02:36.268Z,-4.93
2022-12-13T07:05:02.879Z,-5.07
2022-12-13T07:07:29.895Z,-5.09
2022-12-13T07:09:56.431Z,-5.12
2022-12-13T07:12:23.522Z,-5.17
2022-12-13T07:14:50.461Z,-5.05
2022-12-13T07:17:33.281Z,-5.38
2022-12-13T07:20:08.160Z,-5.22
2022-12-13T07:22:38.770Z,-5.63
2022-12-13T07:25:26.924Z,-5.36
2022-12-13T07:28:03.508Z,-5.03
2022-12-13T07:30:32.915Z,-4.97
2022-12-13T07:33:01.934Z,-5.23
2022-12-13T07:35:29.073Z,-5.26
2022-12-13T07:37:55.845Z,-5.08
2022-12-13T07:40:22.579Z,-5.00
2022-12-13T07:42:56.055Z,-5.09
2022-12-13T07:45:23.463Z,-4.92
2022-12-13T07:47:49.994Z,-4.87
2022-12-13T07:50:24.990Z,-4.66
2022-12-13T07:52:53.503Z,-4.71
2022-12-13T07:55:23.488Z,-4.65
2022-12-13T07:58:05.260Z,-4.65
2022-12-13T08:00:32.255Z,-4.62
2022-12-13T08:03:00.900Z,-4.76
2022-12-13T08:05:28.166Z,-4.76
2022-12-13T08:07:54.809Z,-4.68
2022-12-13T08:10:21.703Z,-4.51
2022-12-13T08:12:50.064Z,-4.78
2022-12-13T08:15:17.778Z,-4.59
2022-12-13T08:17:44.453Z,-4.27
2022-12-13T08:20:11.631Z,-4.09
2022-12-13T08:22:38.114Z,-4.07
2022-12-13T08:25:06.373Z,-3.90
2022-12-13T08:27:33.352Z,-3.91
2022-12-13T08:29:59.825Z,-4.04
2022-12-13T08:32:26.693Z,-4.05
2022-12-13T08:34:53.242Z,-4.03
2022-12-13T08:37:19.703Z,-4.00
2022-12-13T08:39:46.163Z,-3.78
2022-12-13T08:42:19.839Z,-3.77
2022-12-13T08:44:51.465Z,-3.71
2022-12-13T08:47:26.065Z,-3.91
2022-12-13T08:50:02.530Z,-3.86
2022-12-13T08:52:31.746Z,-3.74
2022-12-13T08:54:58.281Z,-3.71
2022-12-13T08:57:24.946Z,-3.63
2022-12-13T08:59:51.445Z,-3.61
2022-12-13T09:02:18.131Z,-3.72
2022-12-13T09:04:44.774Z,-3.78
2022-12-13T09:07:11.594Z,-3.70
2022-12-13T09:09:38.112Z,-3.51
2022-12-13T09:12:10.667Z,-3.67
2022-12-13T09:14:37.796Z,-3.68
2022-12-13T09:17:24.176Z,-3.38
2022-12-13T09:19:58.079Z,-3.07
2022-12-13T09:22:33.579Z,-2.93
2022-12-13T09:25:02.473Z,-2.75
2022-12-13T09:27:30.803Z,-2.86
2022-12-13T09:30:07.991Z,-2.69
2022-12-13T09:32:34.474Z,-2.91
2022-12-13T09:35:00.904Z,-2.53
2022-12-13T09:37:27.552Z,-2.43
2022-12-13T09:39:55.137Z,-2.73
2022-12-13T09:42:30.159Z,-2.93
2022-12-13T09:45:06.421Z,-2.69
2022-12-13T09:47:50.629Z,-2.35
2022-12-13T09:50:27.061Z,-2.31
2022-12-13T09:52:59.844Z,-2.10
2022-12-13T09:55:30.760Z,-2.12
2022-12-13T09:57:59.393Z,-1.93
2022-12-13T10:00:33.110Z,-1.89
2022-12-13T10:03:00.587Z,-1.97
2022-12-13T10:05:39.141Z,-1.95
2022-12-13T10:08:21.731Z,-1.78
2022-12-13T10:10:50.537Z,-1.69
2022-12-13T10:13:42.031Z,-1.85
2022-12-13T10:16:36.555Z,-1.65
2022-12-13T10:19:36.847Z,-1.87
2022-12-13T10:22:06.080Z,-1.84
2022-12-13T10:24:51.963Z,-1.68
2022-12-13T10:27:23.194Z,-1.56
2022-12-13T10:29:58.015Z,-1.47
2022-12-13T10:32:24.535Z,-1.43
2022-12-13T10:34:50.999Z,-1.32
2022-12-13T10:37:23.506Z,-1.36
2022-12-13T10:39:50.507Z,-1.19
2022-12-13T10:42:22.684Z,-1.16
2022-12-13T10:45:10.608Z,-0.98
2022-12-13T10:47:37.326Z,-0.99
2022-12-13T10:50:04.226Z,-0.86
2022-12-13T10:52:34.282Z,-0.81
2022-12-13T10:55:30.168Z,-0.72
2022-12-13T10:58:00.882Z,-0.57
2022-12-13T11:00:47.652Z,-0.91
2022-12-13T11:03:30.651Z,-0.77
2022-12-13T11:06:23.164Z,-0.47
2022-12-13T11:08:49.673Z,-0.22
2022-12-13T11:11:18.459Z,-0.03
2022-12-13T11:13:47.466Z,-0.19
2022-12-13T11:16:30.570Z,0.01
2022-12-13T11:19:08.343Z,-0.15
2022-12-13T11:21:37.475Z,0.07
2022-12-13T11:24:07.596Z,0.12
2022-12-13T11:26:37.815Z,0.19
2022-12-13T11:29:16.409Z,0.35
2022-12-13T11:32:23.112Z,0.23
2022-12-13T11:35:14.668Z,0.19
2022-12-13T11:38:14.701Z,0.12
2022-12-13T11:40:53.026Z,-0.02
2022-12-13T11:43:32.491Z,0.06
2022-12-13T11:46:04.942Z,0.17
2022-12-13T11:49:16.594Z,-0.03
2022-12-13T11:51:49.005Z,0.06
2022-12-13T11:54:28.218Z,0.13
2022-12-13T11:57:00.790Z,0.15
2022-12-13T11:59:27.897Z,0.17
2022-12-13T12:02:07.392Z,0.44
2022-12-13T12:04:58.331Z,0.58
2022-12-13T12:08:05.135Z,0.32
2022-12-13T12:10:36.369Z,0.14
2022-12-13T12:13:34.525Z,0.27
2022-12-13T12:16:43.184Z,0.39
2022-12-13T12:19:14.669Z,0.37
2022-12-13T12:22:12.714Z,0.70
2022-12-13T12:24:46.683Z,0.65
2022-12-13T12:27:23.125Z,0.74
2022-12-13T12:30:01.937Z,0.87
2022-12-13T12:32:34.477Z,0.68
2022-12-13T12:35:19.455Z,0.70
2022-12-13T12:38:03.928Z,0.27
2022-12-13T12:41:15.708Z,0.48
2022-12-13T12:43:42.593Z,0.59
2022-12-13T12:46:09.019Z,0.61
2022-12-13T12:49:13.262Z,0.65
2022-12-13T12:52:05.108Z,0.58
2022-12-13T12:55:09.591Z,0.63
2022-12-13T12:57:43.933Z,0.68
2022-12-13T13:00:19.013Z,0.36
2022-12-13T13:03:01.537Z,0.49
2022-12-13T13:05:57.102Z,0.34
2022-12-13T13:09:04.389Z,0.59
2022-12-13T13:11:43.237Z,0.62
2022-12-13T13:14:32.265Z,0.78
2022-12-13T13:17:00.629Z,0.88
2022-12-13T13:19:32.828Z,0.88
2022-12-13T13:22:01.341Z,0.59
2022-12-13T13:24:31.019Z,0.63
2022-12-13T13:27:09.584Z,0.75
2022-12-13T13:29:38.030Z,0.58
2022-12-13T13:32:12.456Z,0.56
2022-12-13T13:35:00.599Z,0.73
2022-12-13T13:37:43.878Z,0.72
2022-12-13T13:40:13.264Z,0.87
2022-12-13T13:42:57.097Z,0.65
2022-12-13T13:45:27.520Z,0.55
2022-12-13T13:48:19.581Z,0.62
2022-12-13T13:51:21.360Z,0.56
2022-12-13T13:54:08.437Z,0.54
2022-12-13T13:57:03.886Z,0.54
2022-12-13T13:59:55.156Z,0.52
2022-12-13T14:02:33.851Z,0.37
2022-12-13T14:05:47.161Z,0.24
2022-12-13T14:08:24.225Z,0.28
2022-12-13T14:11:41.855Z,0.11
2022-12-13T14:14:38.581Z,-0.02
2022-12-13T14:17:14.318Z,0.13
2022-12-13T14:20:28.971Z,0.20
2022-12-13T14:22:55.331Z,0.04
2022-12-13T14:25:33.629Z,0.21
2022-12-13T14:28:42.514Z,0.24
2022-12-13T14:31:47.977Z,0.14
2022-12-13T14:34:23.387Z,-0.07
2022-12-13T14:37:00.838Z,-0.09
2022-12-13T14:39:33.990Z,-0.15
2022-12-13T14:42:02.807Z,-0.30
2022-12-13T14:44:35.157Z,-0.30
2022-12-13T14:47:08.201Z,-0.27
2022-12-13T14:49:38.873Z,-0.33
2022-12-13T14:52:09.387Z,-0.21
2022-12-13T14:54:49.408Z,-0.27
2022-12-13T14:57:19.416Z,-0.34
2022-12-13T14:59:52.179Z,-0.39
2022-12-13T15:02:31.134Z,-0.50
2022-12-13T15:05:01.156Z,-0.38
2022-12-13T15:07:30.485Z,-0.41
2022-12-13T15:10:03.291Z,-0.43
2022-12-13T15:12:30.649Z,-0.61
2022-12-13T15:15:01.754Z,-0.53
2022-12-13T15:17:32.879Z,-0.58
2022-12-13T15:20:00.672Z,-0.69
2022-12-13T15:22:29.746Z,-0.68
2022-12-13T15:24:58.007Z,-0.55
2022-12-13T15:27:25.434Z,-0.67
2022-12-13T15:29:54.257Z,-0.61
2022-12-13T15:32:23.315Z,-0.58
2022-12-13T15:34:51.440Z,-0.56
2022-12-13T15:37:29.006Z,-0.56
2022-12-13T15:40:00.002Z,-0.57
2022-12-13T15:42:36.970Z,-0.69
2022-12-13T15:45:06.885Z,-0.65
2022-12-13T15:47:33.646Z,-0.68
2022-12-13T15:50:06.064Z,-0.70
2022-12-13T15:52:36.485Z,-0.73
2022-12-13T15:55:05.774Z,-0.79
2022-12-13T15:57:48.310Z,-0.78
2022-12-13T16:00:18.098Z,-0.78
2022-12-13T16:03:11.442Z,-0.97
2022-12-13T16:05:46.537Z,-1.03
2022-12-13T16:08:30.042Z,-1.11
2022-12-13T16:10:58.288Z,-1.34
2022-12-13T16:13:33.674Z,-1.35
2022-12-13T16:16:27.871Z,-1.54
2022-12-13T16:18:57.708Z,-1.62
2022-12-13T16:21:25.538Z,-1.60
2022-12-13T16:23:52.484Z,-1.59
2022-12-13T16:26:25.617Z,-1.67
2022-12-13T16:28:58.624Z,-1.66
2022-12-13T16:31:31.259Z,-1.63
2022-12-13T16:33:57.832Z,-1.78
2022-12-13T16:36:24.330Z,-1.81
2022-12-13T16:38:51.535Z,-1.75
2022-12-13T16:41:18.184Z,-1.67
2022-12-13T16:43:54.273Z,-1.85
2022-12-13T16:47:12.980Z,-1.73
2022-12-13T16:49:28.506Z,-1.79
2022-12-13T16:51:56.234Z,-1.78
2022-12-13T16:54:25.053Z,-1.74
2022-12-13T16:56:52.582Z,-1.80
2022-12-13T16:59:22.561Z,-1.81
2022-12-13T17:01:50.404Z,-1.86
2022-12-13T17:04:21.586Z,-1.92
2022-12-13T17:06:55.055Z,-1.81
2022-12-13T17:09:22.653Z,-1.71
2022-12-13T17:11:49.161Z,-1.74
2022-12-13T17:14:15.609Z,-1.75
2022-12-13T17:16:42.241Z,-1.80
2022-12-13T17:19:10.784Z,-1.75
2022-12-13T17:21:37.611Z,-1.55
2022-12-13T17:24:04.357Z,-1.70
2022-12-13T17:26:30.788Z,-1.55
2022-12-13T17:28:57.275Z,-1.47
2022-12-13T17:31:23.960Z,-1.66
2022-12-13T17:33:50.507Z,-1.50
2022-12-13T17:36:17.203Z,-1.55
2022-12-13T17:38:45.759Z,-1.60
2022-12-13T17:41:15.803Z,-1.49
2022-12-13T17:43:43.192Z,-1.45
2022-12-13T17:46:15.400Z,-1.45
2022-12-13T17:48:43.031Z,-1.35
2022-12-13T17:51:10.657Z,-1.24
2022-12-13T17:53:39.453Z,-1.24
2022-12-13T17:56:08.066Z,-1.24
2022-12-13T17:58:35.473Z,-1.13
2022-12-13T18:01:25.141Z,-1.37
2022-12-13T18:03:54.122Z,-1.61
2022-12-13T18:06:20.656Z,-1.51
2022-12-13T18:08:47.770Z,-1.49
2022-12-13T18:11:32.508Z,-1.42
2022-12-13T18:14:00.020Z,-1.68
2022-12-13T18:16:34.045Z,-1.64
2022-12-13T18:19:03.947Z,-1.86
2022-12-13T18:21:30.453Z,-1.84
2022-12-13T18:23:59.260Z,-1.81
2022-12-13T18:26:25.779Z,-1.69
2022-12-13T18:28:52.339Z,-1.75
2022-12-13T18:31:23.551Z,-1.80
2022-12-13T18:33:52.516Z,-1.65
2022-12-13T18:36:21.281Z,-1.74
2022-12-13T18:38:48.053Z,-1.70
2022-12-13T18:41:17.616Z,-1.76
2022-12-13T18:43:44.827Z,-1.80
2022-12-13T18:46:13.421Z,-1.85
2022-12-13T18:48:40.944Z,-2.13
2022-12-13T18:51:08.934Z,-1.92
2022-12-13T18:53:37.214Z,-1.86
2022-12-13T18:56:16.200Z,-2.01
2022-12-13T18:58:45.704Z,-1.98
2022-12-13T19:01:13.155Z,-2.05
2022-12-13T19:03:41.507Z,-2.04
2022-12-13T19:06:08.105Z,-2.10
2022-12-13T19:08:36.368Z,-2.22
2022-12-13T19:11:04.023Z,-2.12
2022-12-13T19:13:32.297Z,-2.18
2022-12-13T19:16:06.429Z,-2.13
2022-12-13T19:18:33.590Z,-2.08
2022-12-13T19:21:00.264Z,-2.11
2022-12-13T19:23:27.123Z,-2.16
2022-12-13T19:25:53.912Z,-2.09
2022-12-13T19:28:20.400Z,-2.12
2022-12-13T19:30:47.883Z,-2.15
2022-12-13T19:33:15.046Z,-2.21
2022-12-13T19:35:43.203Z,-2.08
2022-12-13T19:38:10.374Z,-2.17
2022-12-13T19:40:41.017Z,-2.19
2022-12-13T19:43:07.725Z,-2.13
2022-12-13T19:45:34.248Z,-2.26
2022-12-13T19:48:00.778Z,-2.12
2022-12-13T19:50:29.409Z,-2.09
2022-12-13T19:52:56.127Z,-1.98
2022-12-13T19:55:22.624Z,-1.97
2022-12-13T19:57:49.180Z,-2.00
2022-12-13T20:00:16.095Z,-1.96
2022-12-13T20:02:42.681Z,-2.02
2022-12-13T20:05:09.598Z,-2.05
2022-12-13T20:07:36.319Z,-2.08
2022-12-13T20:10:04.013Z,-2.06
2022-12-13T20:12:34.189Z,-2.03
2022-12-13T20:15:05.019Z,-2.12
2022-12-13T20:17:32.324Z,-2.10
2022-12-13T20:19:58.870Z,-2.12
2022-12-13T20:22:25.363Z,-2.14
2022-12-13T20:24:51.842Z,-2.13
2022-12-13T20:27:19.977Z,-2.04
2022-12-13T20:29:48.688Z,-2.03
2022-12-13T20:32:15.352Z,-2.08
2022-12-13T20:34:42.149Z,-2.03
2022-12-13T20:37:08.754Z,-1.99
2022-12-13T20:39:35.305Z,-2.06
2022-12-13T20:42:01.758Z,-2.08
2022-12-13T20:44:28.371Z,-2.10
2022-12-13T20:46:54.993Z,-2.12
2022-12-13T20:49:21.672Z,-2.18
2022-12-13T20:51:48.134Z,-2.09
2022-12-13T20:54:14.585Z,-2.02
2022-12-13T20:56:41.120Z,-2.10
2022-12-13T20:59:10.810Z,-2.03
2022-12-13T21:01:40.525Z,-2.02
2022-12-13T21:04:08.686Z,-2.00
2022-12-13T21:06:37.007Z,-2.03
2022-12-13T21:09:04.798Z,-2.12
2022-12-13T21:11:39.848Z,-2.09
2022-12-13T21:14:11.151Z,-2.07
2022-12-13T21:16:53.215Z,-2.08
2022-12-13T21:19:22.560Z,-2.03
2022-12-13T21:21:49.539Z,-1.96
2022-12-13T21:24:17.322Z,-2.00
2022-12-13T21:26:44.604Z,-2.02
2022-12-13T21:29:13.068Z,-2.05
2022-12-13T21:31:44.508Z,-1.98
2022-12-13T21:34:16.606Z,-2.14
2022-12-13T21:36:45.413Z,-2.01
2022-12-13T21:39:20.111Z,-2.09
2022-12-13T21:41:46.644Z,-2.08
2022-12-13T21:44:16.339Z,-2.05
2022-12-13T21:49:29.784Z,-2.01
2022-12-13T21:51:56.213Z,-2.04
2022-12-13T21:54:22.870Z,-1.98
2022-12-13T21:57:08.415Z,-1.99
2022-12-13T21:59:35.065Z,-2.04
2022-12-13T22:02:11.873Z,-2.04
2022-12-13T22:04:44.611Z,-1.91
2022-12-13T22:07:20.198Z,-2.00
2022-12-13T22:09:48.043Z,-1.96
2022-12-13T22:12:30.422Z,-1.91
2022-12-13T22:14:56.930Z,-1.88
2022-12-13T22:17:31.037Z,-1.96
2022-12-13T22:19:59.834Z,-2.06
2022-12-13T22:22:26.582Z,-1.89
2022-12-13T22:24:54.166Z,-1.95
2022-12-13T22:27:25.424Z,-1.92
2022-12-13T22:29:57.242Z,-1.83
2022-12-13T22:32:28.818Z,-1.87
2022-12-13T22:34:55.974Z,-2.01
2022-12-13T22:37:22.962Z,-1.94
2022-12-13T22:39:49.872Z,-1.94
2022-12-13T22:42:16.346Z,-1.95
2022-12-13T22:44:43.012Z,-1.83
2022-12-13T22:47:09.542Z,-1.80
2022-12-13T22:49:36.041Z,-1.79
2022-12-13T22:52:02.602Z,-1.85
2022-12-13T22:54:29.089Z,-1.86
2022-12-13T22:56:55.554Z,-1.89
2022-12-13T22:59:22.057Z,-1.77
2022-12-13T23:01:48.590Z,-1.78
2022-12-13T23:04:15.488Z,-1.75
2022-12-13T23:06:42.022Z,-1.76
2022-12-13T23:09:12.594Z,-1.78
2022-12-13T23:11:58.126Z,-1.73
2022-12-13T23:14:30.614Z,-1.71
2022-12-13T23:16:57.589Z,-1.83
2022-12-13T23:22:10.773Z,-1.90
2022-12-13T23:24:37.256Z,-1.79
2022-12-13T23:27:03.843Z,-1.84
2022-12-13T23:29:30.679Z,-1.75
2022-12-13T23:31:57.103Z,-1.75
2022-12-13T23:34:23.630Z,-1.65
2022-12-13T23:36:50.099Z,-1.57
2022-12-13T23:39:16.562Z,-1.65
2022-12-13T23:41:43.064Z,-1.76
2022-12-13T23:44:10.105Z,-1.67
2022-12-13T23:46:37.012Z,-1.69
2022-12-13T23:49:05.434Z,-1.76
2022-12-13T23:51:32.502Z,-1.70
2022-12-13T23:53:59.204Z,-1.57
2022-12-13T23:56:25.693Z,-1.60
2022-12-13T23:58:52.175Z,-1.63
